createdAt,value
2018-05-10T00:02:00.517Z,18.60
2018-05-10T00:04:28.074Z,18.50
2018-05-10T00:06:55.709Z,18.50
2018-05-10T00:09:23.257Z,18.60
2018-05-10T00:11:51.549Z,18.60
2018-05-10T00:14:19.147Z,18.60
2018-05-10T00:16:46.702Z,18.60
2018-05-10T00:19:14.258Z,18.50
2018-05-10T00:21:41.842Z,18.50
2018-05-10T00:24:10.164Z,18.70
2018-05-10T00:26:37.716Z,18.60
2018-05-10T00:29:05.521Z,18.50
2018-05-10T00:31:33.016Z,18.40
2018-05-10T00:34:01.337Z,18.20
2018-05-10T00:36:28.928Z,18.20
2018-05-10T00:38:56.481Z,18.20
2018-05-10T00:41:24.038Z,18.10
2018-05-10T00:43:51.631Z,18.00
2018-05-10T00:46:19.979Z,17.90
2018-05-10T00:48:47.535Z,17.80
2018-05-10T00:51:15.698Z,17.80
2018-05-10T00:53:43.256Z,17.80
2018-05-10T00:56:10.812Z,17.70
2018-05-10T00:58:38.405Z,17.80
2018-05-10T01:01:05.958Z,17.70
2018-05-10T01:03:33.528Z,17.70
2018-05-10T01:06:01.117Z,17.70
2018-05-10T01:08:29.439Z,17.60
2018-05-10T01:10:56.995Z,17.60
2018-05-10T01:13:25.079Z,17.60
2018-05-10T01:15:52.632Z,17.60
2018-05-10T01:18:20.189Z,17.50
2018-05-10T01:20:47.777Z,17.60
2018-05-10T01:23:15.341Z,17.60
2018-05-10T01:25:42.898Z,17.60
2018-05-10T01:28:10.485Z,17.60
2018-05-10T01:30:38.286Z,17.70
2018-05-10T01:33:05.887Z,17.70
2018-05-10T01:36:10.540Z,17.70
2018-05-10T01:38:38.092Z,17.70
2018-05-10T01:41:05.670Z,17.70
2018-05-10T01:43:33.257Z,17.70
2018-05-10T01:46:00.824Z,17.90
2018-05-10T01:48:28.389Z,17.80
2018-05-10T01:50:55.979Z,17.80
2018-05-10T01:53:23.538Z,17.70
2018-05-10T01:55:51.102Z,17.70
2018-05-10T01:58:19.383Z,17.60
2018-05-10T02:00:46.976Z,17.70
2018-05-10T02:03:14.502Z,17.60
2018-05-10T02:05:42.105Z,17.60
2018-05-10T02:08:10.437Z,17.40
2018-05-10T02:10:37.997Z,17.40
2018-05-10T02:13:05.591Z,17.40
2018-05-10T02:15:33.149Z,17.30
2018-05-10T02:18:00.719Z,17.30
2018-05-10T02:20:28.324Z,17.30
2018-05-10T02:22:55.881Z,17.30
2018-05-10T02:25:23.437Z,17.40
2018-05-10T02:27:51.025Z,17.30
2018-05-10T02:30:18.581Z,17.30
2018-05-10T02:32:46.130Z,17.30
2018-05-10T02:35:13.758Z,17.20
2018-05-10T02:37:41.276Z,17.20
2018-05-10T02:40:08.841Z,17.10
2018-05-10T02:42:36.435Z,17.00
2018-05-10T02:45:04.006Z,17.00
2018-05-10T02:47:32.325Z,16.90
2018-05-10T02:49:59.913Z,16.90
2018-05-10T02:52:27.472Z,16.80
2018-05-10T02:54:55.027Z,16.80
2018-05-10T02:57:22.615Z,16.80
2018-05-10T02:59:50.167Z,16.70
2018-05-10T03:02:17.726Z,16.70
2018-05-10T03:04:45.325Z,16.60
2018-05-10T03:07:13.642Z,16.50
2018-05-10T03:09:41.212Z,16.50
2018-05-10T03:12:08.813Z,16.50
2018-05-10T03:14:36.366Z,16.40
2018-05-10T03:17:03.922Z,16.40
2018-05-10T03:19:31.513Z,16.20
2018-05-10T03:21:59.071Z,16.10
2018-05-10T03:24:27.395Z,16.10
2018-05-10T03:26:54.995Z,16.00
2018-05-10T03:29:22.551Z,16.00
2018-05-10T03:31:50.102Z,15.90
2018-05-10T03:34:17.690Z,15.90
2018-05-10T03:36:46.024Z,15.90
2018-05-10T03:39:13.573Z,15.90
2018-05-10T03:41:41.169Z,15.90
2018-05-10T03:44:08.729Z,15.90
2018-05-10T03:46:36.282Z,15.80
2018-05-10T03:49:03.891Z,15.80
2018-05-10T03:51:31.450Z,15.70
2018-05-10T03:53:59.007Z,15.80
2018-05-10T03:56:26.594Z,15.70
2018-05-10T03:58:54.156Z,15.70
2018-05-10T04:01:21.714Z,15.60
2018-05-10T04:04:13.743Z,15.60
2018-05-10T04:07:18.193Z,15.60
2018-05-10T04:10:25.534Z,15.50
2018-05-10T04:12:53.853Z,15.40
2018-05-10T04:15:21.408Z,15.40
2018-05-10T04:17:48.987Z,15.40
2018-05-10T04:20:16.546Z,15.30
2018-05-10T04:22:44.111Z,15.30
2018-05-10T04:25:11.713Z,15.30
2018-05-10T04:27:40.035Z,15.30
2018-05-10T04:30:07.602Z,15.30
2018-05-10T04:32:35.183Z,15.30
2018-05-10T04:35:02.742Z,15.30
2018-05-10T04:37:30.330Z,15.30
2018-05-10T04:39:57.881Z,15.30
2018-05-10T04:42:25.442Z,15.30
2018-05-10T04:44:52.996Z,15.20
2018-05-10T04:47:20.589Z,15.20
2018-05-10T04:49:48.917Z,15.30
2018-05-10T04:52:16.478Z,15.30
2018-05-10T04:54:44.138Z,15.30
2018-05-10T04:57:11.613Z,15.30
2018-05-10T04:59:39.171Z,15.30
2018-05-10T05:02:06.757Z,15.20
2018-05-10T05:04:34.341Z,15.20
2018-05-10T05:07:02.665Z,15.20
2018-05-10T05:09:30.281Z,15.20
2018-05-10T05:11:57.894Z,15.20
2018-05-10T05:14:26.166Z,15.10
2018-05-10T05:16:53.751Z,15.10
2018-05-10T05:19:21.305Z,15.10
2018-05-10T05:21:48.870Z,15.00
2018-05-10T05:24:16.459Z,15.10
2018-05-10T05:26:44.777Z,15.10
2018-05-10T05:29:12.329Z,15.00
2018-05-10T05:31:39.941Z,15.10
2018-05-10T05:34:07.498Z,15.10
2018-05-10T05:36:35.082Z,15.10
2018-05-10T05:39:02.659Z,15.10
2018-05-10T05:41:30.278Z,15.10
2018-05-10T05:43:57.782Z,15.10
2018-05-10T05:46:25.376Z,15.10
2018-05-10T05:48:52.934Z,15.10
2018-05-10T05:51:20.527Z,15.10
2018-05-10T05:53:48.098Z,15.10
2018-05-10T05:56:15.663Z,15.10
2018-05-10T05:58:43.219Z,15.00
2018-05-10T06:01:10.859Z,15.00
2018-05-10T06:03:38.435Z,14.90
2018-05-10T06:06:06.027Z,14.90
2018-05-10T06:08:34.526Z,15.00
2018-05-10T06:11:02.032Z,14.90
2018-05-10T06:13:29.614Z,15.00
2018-05-10T06:15:58.009Z,15.10
2018-05-10T06:18:25.545Z,15.00
2018-05-10T06:20:53.104Z,15.10
2018-05-10T06:23:20.715Z,15.10
2018-05-10T06:25:48.280Z,15.00
2018-05-10T06:28:15.853Z,15.10
2018-05-10T06:30:43.442Z,15.00
2018-05-10T06:33:11.001Z,15.00
2018-05-10T06:35:38.559Z,14.90
2018-05-10T06:38:06.667Z,14.80
2018-05-10T06:40:34.991Z,15.00
2018-05-10T06:43:02.549Z,15.00
2018-05-10T06:45:30.163Z,14.90
2018-05-10T06:47:57.716Z,14.90
2018-05-10T06:50:25.273Z,14.90
2018-05-10T06:52:52.916Z,14.80
2018-05-10T06:55:20.475Z,14.80
2018-05-10T06:57:48.040Z,14.80
2018-05-10T07:00:15.714Z,14.70
2018-05-10T07:02:43.239Z,14.70
2018-05-10T07:05:10.819Z,14.70
2018-05-10T07:07:38.995Z,14.70
2018-05-10T07:10:06.551Z,14.70
2018-05-10T07:12:34.111Z,14.70
2018-05-10T07:15:01.718Z,14.70
2018-05-10T07:17:30.047Z,14.80
2018-05-10T07:19:57.606Z,14.80
2018-05-10T07:22:25.207Z,14.90
2018-05-10T07:24:52.791Z,14.90
2018-05-10T07:27:20.333Z,14.90
2018-05-10T07:29:47.953Z,14.90
2018-05-10T07:32:15.509Z,14.90
2018-05-10T07:34:43.489Z,14.90
2018-05-10T07:37:11.814Z,15.00
2018-05-10T07:39:40.137Z,15.00
2018-05-10T07:42:07.701Z,15.00
2018-05-10T07:44:35.337Z,15.10
2018-05-10T07:47:02.924Z,15.10
2018-05-10T07:49:31.220Z,15.20
2018-05-10T07:51:58.814Z,15.10
2018-05-10T07:54:26.370Z,15.20
2018-05-10T07:56:53.928Z,15.20
2018-05-10T07:59:21.577Z,15.20
2018-05-10T08:01:49.130Z,15.20
2018-05-10T08:04:16.779Z,15.20
2018-05-10T08:06:45.267Z,15.20
2018-05-10T08:09:12.829Z,15.20
2018-05-10T08:11:40.395Z,15.20
2018-05-10T08:14:08.064Z,15.20
2018-05-10T08:16:35.644Z,15.30
2018-05-10T08:19:03.207Z,15.20
2018-05-10T08:21:30.837Z,15.20
2018-05-10T08:23:58.363Z,15.20
2018-05-10T08:26:25.922Z,15.10
2018-05-10T08:28:54.496Z,15.10
2018-05-10T08:31:22.819Z,14.90
2018-05-10T08:33:50.382Z,14.90
2018-05-10T08:36:18.019Z,14.80
2018-05-10T08:38:45.573Z,14.80
2018-05-10T08:41:13.128Z,14.70
2018-05-10T08:43:40.728Z,14.60
2018-05-10T08:46:08.305Z,14.60
2018-05-10T08:48:35.854Z,14.50
2018-05-10T08:51:03.485Z,14.40
2018-05-10T08:53:33.208Z,14.30
2018-05-10T08:56:00.767Z,14.30
2018-05-10T08:58:28.366Z,14.20
2018-05-10T09:00:55.923Z,14.20
2018-05-10T09:03:23.478Z,14.10
2018-05-10T09:05:51.085Z,14.20
2018-05-10T09:08:19.425Z,14.20
2018-05-10T09:10:46.978Z,14.20
2018-05-10T09:13:15.373Z,14.20
2018-05-10T09:15:42.937Z,14.20
2018-05-10T09:18:10.492Z,14.10
2018-05-10T09:20:38.098Z,14.00
2018-05-10T09:23:05.647Z,14.10
2018-05-10T09:25:33.963Z,14.10
2018-05-10T09:28:01.558Z,14.10
2018-05-10T09:30:29.111Z,14.10
2018-05-10T09:32:56.753Z,14.10
2018-05-10T09:35:24.333Z,14.00
2018-05-10T09:37:51.891Z,14.10
2018-05-10T09:40:19.452Z,14.10
2018-05-10T09:42:47.052Z,14.10
2018-05-10T09:45:14.612Z,14.20
2018-05-10T09:47:42.173Z,14.30
2018-05-10T09:50:11.742Z,14.40
2018-05-10T09:52:39.324Z,14.40
2018-05-10T09:55:06.871Z,14.50
2018-05-10T09:57:35.568Z,14.50
2018-05-10T10:00:06.361Z,14.60
2018-05-10T10:02:33.910Z,14.70
2018-05-10T10:05:01.803Z,14.80
2018-05-10T10:07:29.253Z,14.90
2018-05-10T10:09:56.821Z,15.10
2018-05-10T10:12:24.408Z,15.20
2018-05-10T10:14:51.977Z,15.30
2018-05-10T10:17:19.552Z,15.40
2018-05-10T10:19:47.591Z,15.40
2018-05-10T10:22:15.151Z,15.50
2018-05-10T10:24:42.710Z,15.60
2018-05-10T10:27:10.301Z,15.70
2018-05-10T10:29:37.855Z,15.90
2018-05-10T10:32:05.399Z,15.90
2018-05-10T10:34:34.677Z,16.00
2018-05-10T10:37:02.127Z,16.10
2018-05-10T10:39:29.681Z,16.20
2018-05-10T10:42:16.438Z,16.40
2018-05-10T10:44:43.944Z,16.40
2018-05-10T10:47:11.497Z,16.40
2018-05-10T10:49:39.863Z,16.60
2018-05-10T10:52:08.189Z,16.70
2018-05-10T10:54:35.735Z,16.70
2018-05-10T10:57:04.499Z,16.80
2018-05-10T10:59:33.342Z,17.00
2018-05-10T11:02:00.987Z,16.90
2018-05-10T11:04:28.581Z,17.00
2018-05-10T11:06:56.132Z,17.10
2018-05-10T11:09:23.814Z,17.20
2018-05-10T11:11:51.448Z,17.30
2018-05-10T11:14:18.986Z,17.40
2018-05-10T11:16:46.562Z,17.60
2018-05-10T11:19:14.176Z,17.70
2018-05-10T11:21:41.866Z,17.80
2018-05-10T11:24:09.658Z,17.90
2018-05-10T11:26:37.252Z,17.90
2018-05-10T11:29:04.805Z,18.00
2018-05-10T11:31:32.365Z,18.10
2018-05-10T11:34:00.406Z,18.20
2018-05-10T11:36:28.153Z,18.20
2018-05-10T11:38:55.713Z,18.20
2018-05-10T11:41:23.337Z,18.20
2018-05-10T11:43:50.915Z,18.20
2018-05-10T11:46:18.845Z,18.30
2018-05-10T11:48:46.492Z,18.40
2018-05-10T11:51:14.010Z,18.50
2018-05-10T11:53:44.527Z,18.30
2018-05-10T11:56:12.125Z,18.30
2018-05-10T11:58:39.688Z,18.30
2018-05-10T12:01:08.018Z,18.30
2018-05-10T12:03:35.638Z,18.30
2018-05-10T12:06:03.396Z,18.30
2018-05-10T12:08:30.758Z,18.40
2018-05-10T12:10:58.380Z,18.40
2018-05-10T12:13:25.980Z,18.50
2018-05-10T12:15:53.590Z,18.50
2018-05-10T12:18:21.198Z,18.50
2018-05-10T12:20:48.755Z,18.50
2018-05-10T12:23:17.311Z,18.40
2018-05-10T12:25:45.880Z,18.40
2018-05-10T12:28:13.461Z,18.40
2018-05-10T12:30:41.045Z,18.40
2018-05-10T12:33:09.420Z,18.40
2018-05-10T12:35:38.022Z,18.40
2018-05-10T12:38:05.520Z,18.40
2018-05-10T12:40:33.330Z,18.40
2018-05-10T12:43:01.649Z,18.70
2018-05-10T12:45:29.197Z,18.70
2018-05-10T12:47:56.879Z,18.90
2018-05-10T12:50:24.400Z,18.90
2018-05-10T12:52:51.951Z,18.90
2018-05-10T12:55:20.344Z,18.90
2018-05-10T12:57:47.867Z,18.90
2018-05-10T13:00:15.417Z,18.80
2018-05-10T13:02:45.447Z,18.90
2018-05-10T13:05:12.989Z,19.00
2018-05-10T13:07:44.112Z,19.00
2018-05-10T13:10:11.422Z,19.10
2018-05-10T13:12:38.979Z,19.10
2018-05-10T13:15:06.537Z,19.20
2018-05-10T13:17:35.190Z,19.10
2018-05-10T13:20:02.771Z,19.10
2018-05-10T13:22:31.257Z,19.10
2018-05-10T13:24:59.679Z,19.10
2018-05-10T13:27:31.880Z,19.20
2018-05-10T13:30:00.241Z,19.30
2018-05-10T13:32:27.825Z,19.40
2018-05-10T13:34:55.366Z,19.40
2018-05-10T13:37:22.919Z,19.40
2018-05-10T13:39:50.542Z,19.40
2018-05-10T13:42:18.097Z,19.50
2018-05-10T13:44:45.974Z,19.60
2018-05-10T13:47:20.487Z,19.60
2018-05-10T13:49:48.016Z,19.70
2018-05-10T13:52:15.678Z,19.60
2018-05-10T13:54:45.168Z,19.60
2018-05-10T13:57:11.440Z,19.60
2018-05-10T13:59:38.989Z,19.60
2018-05-10T14:02:06.847Z,19.70
2018-05-10T14:04:34.403Z,19.90
2018-05-10T14:07:01.948Z,20.10
2018-05-10T14:09:30.833Z,20.20
2018-05-10T14:11:59.911Z,20.10
2018-05-10T14:14:27.427Z,19.90
2018-05-10T14:16:55.072Z,19.80
2018-05-10T14:19:22.719Z,19.60
2018-05-10T14:21:50.259Z,19.50
2018-05-10T14:24:17.855Z,19.40
2018-05-10T14:26:45.406Z,19.20
2018-05-10T14:29:12.968Z,19.20
2018-05-10T14:31:40.566Z,19.10
2018-05-10T14:34:08.199Z,19.10
2018-05-10T14:36:37.097Z,19.00
2018-05-10T14:39:07.635Z,18.90
2018-05-10T14:41:35.178Z,18.80
2018-05-10T14:44:02.733Z,18.70
2018-05-10T14:46:30.328Z,18.70
2018-05-10T14:48:57.883Z,18.60
2018-05-10T14:51:25.428Z,18.60
2018-05-10T14:53:53.029Z,18.60
2018-05-10T14:56:20.577Z,18.60
2018-05-10T14:58:48.128Z,18.70
2018-05-10T15:01:16.314Z,18.70
2018-05-10T15:03:45.925Z,18.70
2018-05-10T15:06:11.422Z,18.70
2018-05-10T15:08:39.504Z,18.70
2018-05-10T15:11:07.060Z,18.70
2018-05-10T15:13:34.609Z,18.70
2018-05-10T15:16:03.216Z,18.70
2018-05-10T15:18:30.764Z,18.60
2018-05-10T15:20:58.314Z,18.60
2018-05-10T15:23:25.928Z,18.50
2018-05-10T15:25:53.475Z,18.50
2018-05-10T15:28:21.029Z,18.50
2018-05-10T15:30:48.628Z,18.50
2018-05-10T15:33:16.177Z,18.60
2018-05-10T15:35:43.723Z,18.70
2018-05-10T15:38:11.771Z,18.80
2018-05-10T15:40:39.313Z,18.90
2018-05-10T15:43:06.860Z,19.00
2018-05-10T15:45:35.372Z,19.10
2018-05-10T15:48:02.929Z,19.10
2018-05-10T15:50:30.474Z,19.10
2018-05-10T15:53:01.095Z,19.10
2018-05-10T15:55:28.637Z,19.20
2018-05-10T15:57:56.217Z,19.30
2018-05-10T16:00:23.814Z,19.50
2018-05-10T16:02:51.367Z,19.50
2018-05-10T16:05:18.911Z,19.50
2018-05-10T16:07:47.008Z,19.60
2018-05-10T16:10:14.555Z,19.50
2018-05-10T16:12:42.100Z,19.40
2018-05-10T16:15:09.693Z,19.30
2018-05-10T16:17:37.248Z,19.20
2018-05-10T16:20:04.828Z,19.10
2018-05-10T16:22:32.421Z,19.00
2018-05-10T16:25:00.742Z,18.90
2018-05-10T16:27:28.289Z,18.90
2018-05-10T16:29:55.922Z,18.90
2018-05-10T16:32:23.443Z,18.90
2018-05-10T16:34:50.990Z,18.90
2018-05-10T16:37:18.966Z,18.90
2018-05-10T16:39:46.513Z,19.10
2018-05-10T16:42:14.066Z,19.40
2018-05-10T16:44:41.669Z,19.90
2018-05-10T16:47:09.213Z,20.30
2018-05-10T16:49:36.762Z,20.60
2018-05-10T16:52:04.399Z,21.00
2018-05-10T16:54:31.942Z,21.30
2018-05-10T16:57:05.666Z,21.60
2018-05-10T16:59:33.307Z,21.90
2018-05-10T17:02:00.854Z,22.20
2018-05-10T17:04:28.404Z,22.40
2018-05-10T17:06:56.509Z,22.50
2018-05-10T17:09:24.825Z,22.30
2018-05-10T17:11:52.917Z,22.30
2018-05-10T17:14:20.541Z,22.10
2018-05-10T17:16:48.092Z,22.00
2018-05-10T17:19:15.606Z,21.80
2018-05-10T17:21:43.231Z,21.70
2018-05-10T17:24:10.772Z,21.90
2018-05-10T17:26:39.085Z,21.40
2018-05-10T17:29:06.676Z,21.40
2018-05-10T17:31:34.225Z,21.00
2018-05-10T17:34:01.787Z,20.70
2018-05-10T17:36:29.431Z,20.50
2018-05-10T17:38:56.982Z,20.40
2018-05-10T17:41:24.539Z,20.30
2018-05-10T17:43:52.642Z,20.00
2018-05-10T17:46:20.191Z,19.70
2018-05-10T17:48:47.757Z,19.40
2018-05-10T17:51:15.377Z,19.20
2018-05-10T17:53:43.706Z,18.80
2018-05-10T17:56:11.285Z,18.70
2018-05-10T17:58:39.437Z,18.60
2018-05-10T18:01:07.085Z,18.30
2018-05-10T18:03:34.526Z,18.30
2018-05-10T18:06:02.135Z,18.20
2018-05-10T18:08:29.693Z,18.10
2018-05-10T18:10:57.248Z,17.90
2018-05-10T18:13:24.839Z,17.90
2018-05-10T18:15:52.402Z,18.00
2018-05-10T18:18:19.954Z,17.80
2018-05-10T18:20:47.556Z,17.70
2018-05-10T18:23:15.134Z,17.60
2018-05-10T18:25:42.658Z,17.60
2018-05-10T18:28:11.050Z,17.20
2018-05-10T18:30:39.407Z,17.00
2018-05-10T18:33:06.933Z,17.00
2018-05-10T18:35:34.554Z,16.90
2018-05-10T18:38:02.105Z,16.70
2018-05-10T18:40:30.520Z,16.50
2018-05-10T18:42:59.377Z,16.50
2018-05-10T18:45:27.697Z,16.30
2018-05-10T18:47:55.251Z,16.30
2018-05-10T18:50:24.134Z,16.20
2018-05-10T18:52:51.713Z,16.10
2018-05-10T18:55:19.293Z,16.20
2018-05-10T18:57:47.457Z,16.10
2018-05-10T19:00:15.095Z,16.00
2018-05-10T19:02:42.711Z,16.00
2018-05-10T19:05:10.362Z,15.90
2018-05-10T19:07:37.952Z,15.80
2018-05-10T19:10:06.279Z,15.70
2018-05-10T19:12:33.890Z,15.60
2018-05-10T19:15:02.214Z,15.60
2018-05-10T19:17:29.770Z,15.50
2018-05-10T19:19:57.695Z,15.50
2018-05-10T19:22:25.229Z,15.40
2018-05-10T19:24:53.858Z,15.30
2018-05-10T19:27:22.296Z,15.20
2018-05-10T19:29:49.848Z,15.20
2018-05-10T19:32:17.764Z,15.20
2018-05-10T19:34:46.552Z,15.10
2018-05-10T19:37:14.910Z,15.00
2018-05-10T19:39:42.450Z,15.00
2018-05-10T19:42:10.054Z,15.00
2018-05-10T19:44:38.509Z,15.10
2018-05-10T19:47:06.087Z,15.10
2018-05-10T19:49:34.450Z,15.20
2018-05-10T19:52:02.007Z,15.20
2018-05-10T19:54:29.552Z,15.20
2018-05-10T19:56:57.953Z,15.20
2018-05-10T19:59:26.864Z,15.20
2018-05-10T20:01:55.195Z,15.10
2018-05-10T20:04:22.797Z,15.10
2018-05-10T20:06:50.372Z,15.10
2018-05-10T20:09:17.931Z,15.00
2018-05-10T20:11:46.337Z,15.00
2018-05-10T20:14:13.886Z,14.90
2018-05-10T20:16:41.437Z,14.90
2018-05-10T20:19:09.815Z,14.80
2018-05-10T20:21:38.244Z,14.80
2018-05-10T20:24:05.856Z,14.80
2018-05-10T20:26:33.416Z,14.80
2018-05-10T20:29:00.985Z,14.80
2018-05-10T20:31:29.288Z,14.70
2018-05-10T20:33:56.905Z,14.70
2018-05-10T20:36:24.459Z,14.70
2018-05-10T20:38:52.039Z,14.70
2018-05-10T20:41:19.637Z,14.70
2018-05-10T20:43:47.189Z,14.70
2018-05-10T20:46:14.739Z,14.70
2018-05-10T20:48:42.383Z,14.70
2018-05-10T20:51:09.938Z,14.70
2018-05-10T20:53:37.489Z,14.80
2018-05-10T20:56:06.085Z,14.70
2018-05-10T20:58:33.660Z,14.70
2018-05-10T21:01:01.199Z,14.70
2018-05-10T21:03:29.391Z,14.70
2018-05-10T21:05:56.897Z,14.60
2018-05-10T21:08:24.450Z,14.70
2018-05-10T21:10:52.912Z,14.70
2018-05-10T21:13:20.467Z,14.70
2018-05-10T21:15:48.792Z,14.60
2018-05-10T21:18:16.389Z,14.60
2018-05-10T21:20:44.089Z,14.60
2018-05-10T21:23:11.668Z,14.60
2018-05-10T21:25:39.207Z,14.60
2018-05-10T21:28:06.747Z,14.60
2018-05-10T21:30:35.062Z,14.50
2018-05-10T21:33:02.671Z,14.50
2018-05-10T21:35:30.223Z,14.50
2018-05-10T21:37:57.804Z,14.40
2018-05-10T21:40:25.394Z,14.40
2018-05-10T21:42:53.030Z,14.50
2018-05-10T21:45:20.520Z,14.40
2018-05-10T21:47:48.517Z,14.40
2018-05-10T21:50:16.076Z,14.40
2018-05-10T21:52:43.621Z,14.50
2018-05-10T21:55:11.346Z,14.50
2018-05-10T21:57:38.906Z,14.40
2018-05-10T22:00:07.225Z,14.30
2018-05-10T22:02:34.822Z,14.30
2018-05-10T22:05:02.387Z,14.30
2018-05-10T22:07:29.938Z,14.30
2018-05-10T22:09:57.549Z,14.20
2018-05-10T22:12:25.111Z,14.30
2018-05-10T22:14:52.682Z,14.20
2018-05-10T22:17:20.263Z,14.20
2018-05-10T22:19:47.857Z,14.20
2018-05-10T22:22:15.372Z,14.10
2018-05-10T22:24:42.970Z,14.10
2018-05-10T22:27:10.531Z,14.10
2018-05-10T22:29:38.089Z,14.10
2018-05-10T22:32:05.677Z,14.10
2018-05-10T22:34:33.234Z,14.10
2018-05-10T22:37:00.785Z,14.10
2018-05-10T22:39:28.373Z,14.10
2018-05-10T22:41:55.929Z,14.10
2018-05-10T22:44:23.507Z,14.20
2018-05-10T22:46:51.099Z,14.20
2018-05-10T22:49:18.649Z,14.10
2018-05-10T22:51:46.201Z,14.10
2018-05-10T22:54:13.789Z,14.10
2018-05-10T22:56:41.345Z,14.00
2018-05-10T22:59:08.894Z,14.00
2018-05-10T23:01:36.487Z,14.00
2018-05-10T23:04:04.044Z,14.00
2018-05-10T23:06:31.600Z,13.90
2018-05-10T23:08:59.207Z,14.00
2018-05-10T23:11:27.528Z,13.90
2018-05-10T23:13:55.077Z,13.90
2018-05-10T23:16:22.662Z,13.90
2018-05-10T23:18:50.219Z,13.80
2018-05-10T23:21:17.773Z,13.80
2018-05-10T23:23:45.362Z,13.80
2018-05-10T23:26:12.917Z,13.70
2018-05-10T23:28:40.475Z,13.70
2018-05-10T23:31:08.504Z,13.70
2018-05-10T23:33:36.060Z,13.60
2018-05-10T23:36:03.699Z,13.60
2018-05-10T23:38:31.211Z,13.60
2018-05-10T23:40:58.771Z,13.60
2018-05-10T23:43:26.331Z,13.60
2018-05-10T23:45:54.311Z,13.50
2018-05-10T23:48:21.864Z,13.50
2018-05-10T23:50:49.417Z,13.50
2018-05-10T23:53:17.018Z,13.40
2018-05-10T23:55:44.586Z,13.40
2018-05-10T23:58:12.147Z,13.40
